Aérodrome :
LOGIN :

S'inscrire | Disclaimer

   EN    FR    IT 

 










Légende :    VFR   VFR Marginal   IFR   IFR Intensif   IFR Très Intensif
Visi : 
Plafond : 
>= 8 km
>= 3000ft
5 à 8 km
1000 à 3000 ft
1500m à 5 km
500 à 1000 ft
800 à 1500m
200 à 500 ft
< 800m
< 200 ft
Symboles :   Orages  Brouillard  Fortes neiges  Fortes précipitations  Vent > 20 kt
SIGMETs :   Divers  Orages  Givrage  Turbulence  Onde Orograph.  Cendres Volcan.







- Altitude de l'aérodrome : 1416 ft
- Code IATA : ZRH


LSZH - Zurich

DERNIER METAR :
  • 251150Z 04007KT 360V080 9999 FEW040 BKN058 19/09 Q1023 NOSIG

METARs EXPIRÉS :
  • 251120Z 02007KT 350V060 9999 FEW036 BKN056 18/10 Q1023 NOSIG
  • 251050Z 01007KT 350V050 9999 FEW036 SCT052 19/10 Q1023 NOSIG
  • 251020Z 03006KT 330V080 9999 FEW032 SCT050 18/10 Q1023 NOSIG
  • 250950Z 03007KT 360V060 9999 FEW030 18/10 Q1023 NOSIG
  • 250920Z 05008KT 010V080 9999 FEW022 SCT038 18/10 Q1023 NOSIG

TAF TAF LSZH
Valide du 25 à 12h jusqu'au 26 à 18h UTC


251125Z 2512/2618 01007KT 9999 FEW035 SCT052 TX22/2515Z TN09/2604Z TX25/2615Z
TEMPO 2512/2517 06012KT
BECMG 2516/2519 CAVOK
BECMG 2520/2523 04004KT
BECMG 2607/2610 05008KT
BECMG 2610/2612 9999 FEW055
ATIS : +41 43 816 2295 (DEP) +41 43 816 2294 (ARR)
Pas de NOTAMs connus pour ce terrain.



MET'MAP, la Météo Aéronautique d'un coup d'oeil ! - Copyright ORBIFLY Décembre 2007 - Disclaimer

ORBIFLY MET'MAP TEAM :

Programmation & Développement : Alexandra Zaïnal
Conception & Développement : Baudouin d'Aumeries
Co-Programmation & Développement : Marc-Olivier Méhu
Soutien technique & logistique : Manuel Goepfert

Contact : metmap@orbifly.com




SOURCES & CREDITS :

   NOAA